Time;durP1;ratioP1;P1;durP2;ratioP2;P2;SDS_P1;SDS_P2;PMS_P1;PMS_P2;Temp;Humidity;BMP_temperature;BMP_pressure;BME280_temperature;BME280_humidity;BME280_pressure;Samples;Min_cycle;Max_cycle;Signal;HPM_P1;HPM_P2
2022/12/02 00:02:30;;;;;;;525.33;35.93;;;0.50;1.00;0.80;94215.00;;;;7398984;19;20602;-75
2022/12/02 00:05:17;;;;;;;700.93;42.57;;;0.50;1.00;0.70;94214.00;;;;7399698;19;20474;-74
2022/12/02 00:07:45;;;;;;;425.63;33.57;;;0.50;1.00;0.70;94205.00;;;;7398080;19;20141;-75
2022/12/02 00:10:33;;;;;;;725.10;45.20;;;0.50;1.00;0.70;94210.00;;;;7398245;19;20137;-75
2022/12/02 00:13:42;;;;;;;919.50;50.77;;;0.50;1.00;0.70;94190.00;;;;7397893;19;20155;-74
2022/12/02 00:16:21;;;;;;;606.57;37.70;;;0.50;1.00;0.50;94201.00;;;;7398347;19;20596;-75
2022/12/02 00:18:51;;;;;;;945.80;53.17;;;0.50;1.00;0.50;94210.00;;;;7398044;19;20208;-75
2022/12/02 00:21:24;;;;;;;472.53;35.43;;;0.40;1.00;0.50;94187.00;;;;7397969;19;20144;-75
2022/12/02 00:23:51;;;;;;;871.10;47.43;;;0.40;1.00;0.60;94196.00;;;;7399047;19;20125;-75
2022/12/02 00:26:17;;;;;;;682.13;43.50;;;0.40;1.00;0.60;94195.00;;;;7398199;19;20166;-75
2022/12/02 00:28:51;;;;;;;755.10;49.17;;;0.40;1.00;0.60;94181.00;;;;7397947;19;20164;-76
2022/12/02 00:31:31;;;;;;;1022.70;52.80;;;0.40;1.00;0.60;94179.00;;;;7397443;19;20168;-75
2022/12/02 00:34:05;;;;;;;732.40;48.47;;;0.40;1.00;0.60;94195.00;;;;7397607;19;20120;-75
2022/12/02 00:36:32;;;;;;;1012.73;48.93;;;0.40;1.00;0.50;94184.00;;;;7397339;19;20166;-75
2022/12/02 00:38:59;;;;;;;773.63;45.07;;;0.40;1.00;0.70;94189.00;;;;7397783;19;20518;-75
2022/12/02 00:41:33;;;;;;;547.20;38.37;;;0.40;1.00;0.60;94179.00;;;;7399068;19;20147;-75
2022/12/02 00:46:52;;;;;;;659.63;35.27;;;0.40;1.00;0.60;94160.00;;;;7398664;19;20477;-75
2022/12/02 00:49:19;;;;;;;632.27;50.37;;;0.40;1.00;0.60;94176.00;;;;7397809;19;20155;-75
2022/12/02 00:51:46;;;;;;;940.80;56.17;;;0.40;1.00;0.70;94177.00;;;;7397237;19;20204;-75
2022/12/02 00:54:20;;;;;;;815.90;47.67;;;0.40;1.00;0.60;94171.00;;;;7387911;19;20149;-75
2022/12/02 00:56:46;;;;;;;925.53;53.83;;;0.40;1.00;0.60;94154.00;;;;7393965;19;20128;-75
2022/12/02 00:59:13;;;;;;;452.60;32.93;;;0.30;1.00;0.50;94159.00;;;;7396231;19;20603;-75
2022/12/02 01:01:47;;;;;;;725.60;44.67;;;0.40;1.00;0.50;94162.00;;;;7396899;19;20208;-76
2022/12/02 01:04:14;;;;;;;664.30;45.83;;;0.40;1.00;0.60;94167.00;;;;7398832;19;20157;-76
2022/12/02 01:06:41;;;;;;;723.53;44.37;;;0.40;1.00;0.60;94157.00;;;;7397122;19;20202;-75
2022/12/02 01:09:15;;;;;;;1021.63;51.47;;;0.40;1.00;0.50;94150.00;;;;7396219;19;20136;-75
2022/12/02 01:11:42;;;;;;;779.10;42.33;;;0.40;1.00;0.50;94164.00;;;;7396339;19;20143;-76
2022/12/02 01:14:09;;;;;;;992.43;53.77;;;0.40;1.00;0.50;94144.00;;;;7393669;19;20137;-75
2022/12/02 01:16:43;;;;;;;213.97;27.17;;;0.40;1.00;0.60;94149.00;;;;7398443;19;20132;-76
2022/12/02 01:19:10;;;;;;;737.43;43.70;;;0.40;1.00;0.60;94146.00;;;;7404336;19;20148;-75
2022/12/02 01:21:37;;;;;;;887.97;40.80;;;0.40;1.00;0.60;94151.00;;;;7405406;19;20484;-75
2022/12/02 01:24:11;;;;;;;822.90;55.13;;;0.40;1.00;0.70;94154.00;;;;7404823;19;20148;-75
2022/12/02 01:26:38;;;;;;;722.33;42.73;;;0.40;1.00;0.50;94145.00;;;;7403434;19;20521;-75
2022/12/02 01:29:05;;;;;;;476.17;39.50;;;0.40;1.00;0.70;94134.00;;;;7403871;19;20619;-75
2022/12/02 01:31:44;;;;;;;697.43;44.23;;;0.40;1.00;0.80;94147.00;;;;7403354;19;20157;-75
2022/12/02 01:34:11;;;;;;;808.20;53.97;;;0.40;1.00;0.80;94152.00;;;;7405411;19;20129;-75
2022/12/02 01:36:45;;;;;;;717.10;36.87;;;0.40;1.00;0.60;94149.00;;;;7404470;19;20121;-75
2022/12/02 01:39:12;;;;;;;733.13;45.67;;;0.40;1.00;0.70;94131.00;;;;7403919;19;20141;-75
2022/12/02 01:41:39;;;;;;;522.23;34.73;;;0.40;1.00;0.70;94145.00;;;;7403157;19;20149;-75
2022/12/02 01:44:12;;;;;;;672.97;45.17;;;0.40;1.00;0.70;94128.00;;;;7403391;19;20567;-75
2022/12/02 01:46:41;;;;;;;730.03;51.57;;;0.40;1.00;0.70;94136.00;;;;7403613;19;20143;-75
2022/12/02 01:49:08;;;;;;;740.57;43.73;;;0.40;1.00;0.60;94131.00;;;;7403136;19;20124;-75
2022/12/02 01:51:42;;;;;;;877.93;48.97;;;0.40;1.00;0.70;94140.00;;;;7402710;19;20124;-75
2022/12/02 01:54:09;;;;;;;598.80;33.03;;;0.40;1.00;0.70;94139.00;;;;7401243;19;20121;-75
2022/12/02 01:56:36;;;;;;;647.27;38.93;;;0.40;1.00;0.80;94130.00;;;;7404243;19;20133;-75
2022/12/02 01:59:13;;;;;;;536.33;34.93;;;0.40;1.00;0.80;94143.00;;;;7402187;19;20160;-75
2022/12/02 02:01:40;;;;;;;432.40;36.33;;;0.40;1.00;0.80;94139.00;;;;7402977;19;20206;-75
2022/12/02 02:04:09;;;;;;;605.30;37.03;;;0.40;1.00;0.60;94139.00;;;;7399381;19;20129;-76
2022/12/02 02:06:46;;;;;;;614.00;39.40;;;0.40;1.00;0.80;94142.00;;;;7402536;19;20133;-76
2022/12/02 02:09:13;;;;;;;475.30;34.70;;;0.50;1.00;0.70;94126.00;;;;7404022;19;20132;-76
2022/12/02 02:11:41;;;;;;;501.03;36.03;;;0.40;1.00;0.80;94115.00;;;;7403643;19;20193;-75
2022/12/02 02:14:15;;;;;;;627.47;38.10;;;0.40;1.00;0.90;94119.00;;;;7401244;19;20163;-76
2022/12/02 02:16:42;;;;;;;488.60;32.60;;;0.50;1.00;0.80;94123.00;;;;7401778;19;20129;-75
2022/12/02 02:19:13;;;;;;;596.53;44.07;;;0.40;1.00;0.90;94126.00;;;;7402458;19;20603;-75
2022/12/02 02:21:51;;;;;;;700.57;41.27;;;0.50;1.00;0.90;94123.00;;;;7403237;19;20204;-75
2022/12/02 02:24:18;;;;;;;526.77;36.87;;;0.50;1.00;0.90;94130.00;;;;7399300;19;20125;-75
2022/12/02 02:26:46;;;;;;;436.60;34.37;;;0.40;1.00;0.80;94113.00;;;;7402296;19;20141;-75
2022/12/02 02:29:20;;;;;;;352.47;28.67;;;0.40;1.00;0.80;94132.00;;;;7402772;19;20609;-76
2022/12/02 02:31:54;;;;;;;607.40;38.63;;;0.50;1.00;0.70;94141.00;;;;7400111;19;20177;-75
2022/12/02 02:34:35;;;;;;;726.67;40.93;;;0.50;1.00;0.70;94118.00;;;;7402007;19;20145;-75
2022/12/02 02:37:02;;;;;;;563.37;32.20;;;0.50;1.00;0.80;94111.00;;;;7402059;19;20612;-75
2022/12/02 02:39:36;;;;;;;475.00;37.10;;;0.40;1.00;0.80;94117.00;;;;7400998;19;20144;-75
2022/12/02 02:42:03;;;;;;;393.77;30.17;;;0.50;1.00;0.80;94129.00;;;;7401129;19;20148;-76
2022/12/02 02:44:30;;;;;;;421.40;34.90;;;0.50;1.00;0.70;94115.00;;;;7401358;19;20141;-76
2022/12/02 02:47:04;;;;;;;466.60;32.53;;;0.40;1.00;0.80;94116.00;;;;7401867;19;20686;-76
2022/12/02 02:49:31;;;;;;;254.70;23.63;;;0.40;1.00;0.70;94118.00;;;;7402217;19;20467;-76
2022/12/02 02:51:58;;;;;;;467.37;31.47;;;0.40;1.00;0.60;94092.00;;;;7398938;19;21035;-76
2022/12/02 02:54:32;;;;;;;356.87;25.27;;;0.40;1.00;0.60;94121.00;;;;7402199;19;20135;-76
2022/12/02 02:56:59;;;;;;;326.43;23.80;;;0.40;1.00;0.60;94107.00;;;;7402878;19;20128;-76
2022/12/02 02:59:26;;;;;;;237.83;21.70;;;0.40;1.00;0.60;94120.00;;;;7400696;19;20146;-76
2022/12/02 03:02:07;;;;;;;167.27;23.27;;;0.40;1.00;0.60;94102.00;;;;7400237;19;20141;-76
2022/12/02 03:04:35;;;;;;;313.47;22.87;;;0.40;1.00;0.70;94112.00;;;;7400648;19;20132;-76
2022/12/02 03:07:09;;;;;;;258.93;21.77;;;0.40;1.00;0.50;94092.00;;;;7402389;19;20116;-76
2022/12/02 03:09:37;;;;;;;230.73;21.77;;;0.40;1.00;0.60;94106.00;;;;7400651;19;20742;-76
2022/12/02 03:12:06;;;;;;;329.40;25.10;;;0.40;1.00;0.70;94091.00;;;;7401522;19;20124;-76
2022/12/02 03:14:39;;;;;;;155.50;17.30;;;0.40;1.00;0.50;94105.00;;;;7400280;19;20200;-76
2022/12/02 03:17:06;;;;;;;265.60;22.73;;;0.40;1.00;0.60;94095.00;;;;7402188;19;20185;-76
2022/12/02 03:19:36;;;;;;;331.73;24.07;;;0.40;1.00;0.70;94094.00;;;;7401838;19;20192;-76
2022/12/02 03:22:11;;;;;;;283.80;21.70;;;0.40;1.00;0.80;94082.00;;;;7400763;19;20600;-76
2022/12/02 03:24:38;;;;;;;234.90;20.43;;;0.30;1.00;0.80;94092.00;;;;7400249;19;20125;-76
2022/12/02 03:27:09;;;;;;;372.00;26.43;;;0.30;1.00;0.80;94087.00;;;;7400200;19;20509;-75
2022/12/02 03:29:42;;;;;;;278.53;24.53;;;0.30;1.00;0.70;94090.00;;;;7401262;19;20129;-76
2022/12/02 03:32:23;;;;;;;217.87;21.93;;;0.40;1.00;0.60;94088.00;;;;7396721;19;20161;-76
2022/12/02 03:34:58;;;;;;;457.20;26.30;;;0.30;1.00;0.70;94091.00;;;;7399301;19;20125;-76
2022/12/02 03:37:25;;;;;;;360.53;25.50;;;0.30;1.00;0.70;94088.00;;;;7397656;19;20273;-76
2022/12/02 03:39:52;;;;;;;293.20;20.07;;;0.30;1.00;0.50;94092.00;;;;7401193;19;20535;-76
2022/12/02 03:42:26;;;;;;;327.87;25.00;;;0.30;1.00;0.40;94086.00;;;;7399253;19;20477;-76
2022/12/02 03:44:53;;;;;;;428.63;27.50;;;0.40;1.00;0.40;94098.00;;;;7401216;19;20132;-76
2022/12/02 03:47:20;;;;;;;417.13;24.90;;;0.40;1.00;0.40;94096.00;;;;7400493;19;20136;-76
2022/12/02 03:49:54;;;;;;;316.13;22.07;;;0.40;1.00;0.50;94078.00;;;;7399460;19;20501;-76
2022/12/02 03:52:21;;;;;;;381.90;25.87;;;0.40;1.00;0.40;94093.00;;;;7395543;19;20686;-76
2022/12/02 03:54:48;;;;;;;481.97;23.93;;;0.40;1.00;0.50;94087.00;;;;7400919;19;20209;-76
2022/12/02 03:57:23;;;;;;;360.70;26.57;;;0.30;1.00;0.40;94088.00;;;;7398676;19;20144;-76
2022/12/02 03:59:51;;;;;;;434.60;25.07;;;0.40;1.00;0.50;94088.00;;;;7400564;19;20596;-76
2022/12/02 04:02:18;;;;;;;366.37;21.37;;;0.40;1.00;0.40;94069.00;;;;7398401;19;20141;-76
2022/12/02 04:04:51;;;;;;;427.37;26.90;;;0.30;1.00;0.40;94081.00;;;;7400441;19;20607;-76
2022/12/02 04:07:18;;;;;;;538.60;34.10;;;0.30;1.00;0.50;94068.00;;;;7400131;19;20149;-77
2022/12/02 04:09:45;;;;;;;620.47;35.40;;;0.30;1.00;0.60;94072.00;;;;7400085;19;20124;-75
2022/12/02 04:12:19;;;;;;;546.77;28.20;;;0.30;1.00;0.70;94075.00;;;;7399779;19;20617;-76
2022/12/02 04:14:46;;;;;;;470.50;30.57;;;0.30;1.00;0.60;94059.00;;;;7397562;19;20185;-76
2022/12/02 04:17:13;;;;;;;654.63;35.97;;;0.30;1.00;0.70;94059.00;;;;7398048;19;20158;-76
2022/12/02 04:19:46;;;;;;;762.03;36.10;;;0.30;1.00;0.60;94054.00;;;;7399520;19;20125;-76
2022/12/02 04:22:13;;;;;;;526.80;30.13;;;0.30;1.00;0.60;94076.00;;;;7399508;19;20623;-76
2022/12/02 04:24:40;;;;;;;457.50;30.30;;;0.30;1.00;0.70;94047.00;;;;7397485;19;20121;-76
2022/12/02 04:27:13;;;;;;;394.10;23.77;;;0.30;1.00;0.70;94057.00;;;;7398264;19;20512;-76
2022/12/02 04:29:40;;;;;;;396.70;24.77;;;0.30;1.00;0.50;94066.00;;;;7399763;19;20128;-76
2022/12/02 04:32:07;;;;;;;167.83;17.53;;;0.30;1.00;0.50;94058.00;;;;7397057;19;20466;-76
2022/12/02 04:34:41;;;;;;;465.10;34.20;;;0.30;1.00;0.60;94050.00;;;;7398367;19;20137;-75
2022/12/02 04:37:08;;;;;;;298.50;22.97;;;0.30;1.00;0.60;94063.00;;;;7397917;19;20158;-75
2022/12/02 04:39:35;;;;;;;503.37;30.63;;;0.30;1.00;0.60;94056.00;;;;7397599;19;20143;-76
2022/12/02 04:42:09;;;;;;;231.43;19.93;;;0.30;1.00;0.60;94059.00;;;;7398975;19;20146;-75
2022/12/02 04:44:36;;;;;;;630.57;34.10;;;0.30;1.00;0.70;94055.00;;;;7396379;19;20212;-76
2022/12/02 04:47:03;;;;;;;551.30;29.57;;;0.30;1.00;0.80;94036.00;;;;7399623;19;20128;-76
2022/12/02 04:49:36;;;;;;;607.77;33.17;;;0.30;1.00;0.70;94053.00;;;;7398282;19;20192;-76
2022/12/02 04:52:03;;;;;;;685.20;36.23;;;0.30;1.00;0.70;94045.00;;;;7391551;19;20151;-76
2022/12/02 04:54:30;;;;;;;575.90;38.73;;;0.30;1.00;0.60;94040.00;;;;7396945;19;20141;-76
2022/12/02 04:57:04;;;;;;;679.37;33.27;;;0.30;1.00;0.70;94040.00;;;;7396541;19;20124;-76
2022/12/02 04:59:31;;;;;;;513.27;33.13;;;0.30;1.00;0.70;94053.00;;;;7397060;19;20602;-76
2022/12/02 05:01:57;;;;;;;667.17;36.37;;;0.30;1.00;0.70;94048.00;;;;7396840;19;20145;-76
2022/12/02 05:04:31;;;;;;;334.47;27.53;;;0.30;1.00;0.60;94050.00;;;;7396771;19;20133;-75
2022/12/02 05:07:05;;;;;;;458.90;26.23;;;0.30;1.00;0.60;94027.00;;;;7397440;19;20127;-75
2022/12/02 05:09:39;;;;;;;479.00;28.83;;;0.30;1.00;0.60;94037.00;;;;7397892;19;20580;-77
2022/12/02 05:12:06;;;;;;;434.80;28.80;;;0.30;1.00;0.60;94047.00;;;;7395668;19;20149;-75
2022/12/02 05:14:33;;;;;;;219.73;18.90;;;0.30;1.00;0.50;94040.00;;;;7393056;19;20603;-75
2022/12/02 05:17:07;;;;;;;431.13;25.57;;;0.40;1.00;0.60;94033.00;;;;7397316;19;20141;-75
2022/12/02 05:19:34;;;;;;;463.67;29.43;;;0.30;1.00;0.60;94047.00;;;;7395060;19;20667;-75
2022/12/02 05:22:01;;;;;;;751.00;38.53;;;0.30;1.00;0.70;94030.00;;;;7395716;19;20143;-75
2022/12/02 05:24:35;;;;;;;541.20;30.37;;;0.30;1.00;0.50;94041.00;;;;7395947;19;20152;-75
2022/12/02 05:27:02;;;;;;;297.30;25.07;;;0.30;1.00;0.60;94035.00;;;;7395293;19;20154;-75
2022/12/02 05:29:29;;;;;;;466.57;29.60;;;0.30;1.00;0.70;94041.00;;;;7395130;19;20185;-76
2022/12/02 05:32:10;;;;;;;534.67;37.00;;;0.30;1.00;0.80;94045.00;;;;7395324;19;20612;-75
2022/12/02 05:34:37;;;;;;;431.90;30.83;;;0.30;1.00;0.70;94054.00;;;;7395354;19;20141;-76
2022/12/02 05:37:11;;;;;;;544.47;37.80;;;0.30;1.00;0.60;94048.00;;;;7396422;19;20148;-75
2022/12/02 05:39:37;;;;;;;518.50;29.43;;;0.30;1.00;0.60;94029.00;;;;7395030;19;20136;-75
2022/12/02 05:42:10;;;;;;;608.90;37.70;;;0.30;1.00;0.70;94045.00;;;;7395084;19;20141;-75
2022/12/02 05:44:44;;;;;;;501.80;32.97;;;0.30;1.00;0.60;94041.00;;;;7394522;19;20129;-76
2022/12/02 05:47:15;;;;;;;336.07;24.20;;;0.30;1.00;0.60;94043.00;;;;7396180;19;20129;-76
2022/12/02 05:49:45;;;;;;;471.37;26.77;;;0.30;1.00;0.50;94029.00;;;;7396652;19;20148;-76
2022/12/02 05:52:26;;;;;;;437.30;26.70;;;0.30;1.00;0.50;94038.00;;;;7391929;19;20655;-74
2022/12/02 05:54:59;;;;;;;373.67;27.73;;;0.30;1.00;0.50;94035.00;;;;7394508;19;20124;-74
2022/12/02 05:57:33;;;;;;;162.77;18.33;;;0.30;1.00;0.50;94034.00;;;;7394048;19;20155;-75
2022/12/02 06:00:21;;;;;;;199.63;20.63;;;0.40;1.00;0.70;94033.00;;;;7396888;19;20149;-75
2022/12/02 06:02:59;;;;;;;654.33;38.73;;;0.30;1.00;0.50;94032.00;;;;7394412;19;20149;-75
2022/12/02 06:05:39;;;;;;;256.37;23.50;;;0.30;1.00;0.50;94036.00;;;;7402705;19;20424;-75
2022/12/02 06:08:29;;;;;;;237.67;27.90;;;0.30;1.00;0.50;94036.00;;;;7401605;19;20129;-74
2022/12/02 06:11:21;;;;;;;360.37;27.07;;;0.30;1.00;0.60;94020.00;;;;7401786;19;20149;-76
2022/12/02 06:13:59;;;;;;;305.90;23.27;;;0.20;1.00;0.50;94042.00;;;;7401469;19;20140;-74
2022/12/02 06:16:30;;;;;;;443.97;30.57;;;0.30;1.00;0.60;94037.00;;;;7401159;19;20140;-76
2022/12/02 06:19:22;;;;;;;202.37;24.20;;;0.20;1.00;0.50;94012.00;;;;7401332;19;20139;-76
2022/12/02 06:21:50;;;;;;;166.57;20.60;;;0.30;1.00;0.50;94016.00;;;;7401244;19;20136;-75
2022/12/02 06:24:30;;;;;;;123.67;19.00;;;0.20;1.00;0.60;94023.00;;;;7401741;19;20129;-76
2022/12/02 06:27:01;;;;;;;95.53;17.30;;;0.20;1.00;0.50;94015.00;;;;7400992;19;20258;-76
2022/12/02 06:29:35;;;;;;;183.80;24.90;;;0.20;1.00;0.50;93985.00;;;;7402616;19;20125;-75
2022/12/02 06:32:11;;;;;;;142.73;20.23;;;0.20;1.00;0.50;94027.00;;;;7399418;19;20615;-76
2022/12/02 06:34:48;;;;;;;89.23;16.07;;;0.20;1.00;0.50;94016.00;;;;7401826;19;20136;-77
2022/12/02 06:37:22;;;;;;;121.23;16.10;;;0.20;1.00;0.50;94033.00;;;;7401252;19;20483;-76
2022/12/02 06:39:59;;;;;;;107.03;16.90;;;0.30;1.00;0.50;94023.00;;;;7402572;19;20134;-76
2022/12/02 06:42:46;;;;;;;44.17;14.03;;;0.30;1.00;0.50;94017.00;;;;7400153;19;20604;-76
2022/12/02 06:45:26;;;;;;;55.47;15.03;;;0.30;1.00;0.40;94021.00;;;;7399708;19;20133;-76
2022/12/02 06:48:06;;;;;;;78.80;16.07;;;0.40;1.00;0.50;94033.00;;;;7399835;19;20203;-76
2022/12/02 06:50:46;;;;;;;68.97;15.93;;;0.30;1.00;0.60;94032.00;;;;7398319;19;20132;-76
2022/12/02 06:53:35;;;;;;;81.33;15.63;;;0.40;1.00;0.60;94015.00;;;;7402276;19;20610;-77
2022/12/02 06:56:30;;;;;;;121.47;20.20;;;0.30;1.00;0.70;94022.00;;;;7401331;19;20141;-77
2022/12/02 06:59:04;;;;;;;82.83;14.97;;;0.30;1.00;0.70;94027.00;;;;7399269;19;20125;-76
2022/12/02 07:01:43;;;;;;;63.07;14.80;;;0.30;1.00;0.50;94037.00;;;;7401717;19;20152;-76
2022/12/02 07:04:50;;;;;;;69.83;17.67;;;0.30;1.00;0.60;94039.00;;;;7398948;19;20137;-75
2022/12/02 07:07:30;;;;;;;125.83;18.90;;;0.30;1.00;0.60;94042.00;;;;7401158;19;20128;-76
2022/12/02 07:10:17;;;;;;;106.23;17.80;;;0.30;1.00;0.60;94019.00;;;;7399779;19;20141;-75
2022/12/02 07:12:51;;;;;;;77.03;16.10;;;0.30;1.00;0.60;94037.00;;;;7401206;19;20498;-75
2022/12/02 07:15:31;;;;;;;142.60;18.00;;;0.30;1.00;0.60;94028.00;;;;7396565;19;20628;-75
2022/12/02 07:18:15;;;;;;;46.30;15.63;;;0.30;1.00;0.60;94039.00;;;;7399078;19;20609;-77
2022/12/02 07:20:45;;;;;;;130.60;16.10;;;0.30;1.00;0.80;94030.00;;;;7399419;19;20711;-78
2022/12/02 07:23:23;;;;;;;124.90;16.43;;;0.20;1.00;0.60;94033.00;;;;7399795;19;20604;-77
2022/12/02 07:25:53;;;;;;;108.97;16.93;;;0.30;1.00;0.60;94029.00;;;;7398689;19;20152;-77
2022/12/02 07:28:43;;;;;;;133.30;16.20;;;0.30;1.00;0.50;94028.00;;;;7398286;19;20166;-78
2022/12/02 07:31:29;;;;;;;71.27;14.77;;;0.30;1.00;0.50;94022.00;;;;7398527;19;20603;-77
2022/12/02 07:34:09;;;;;;;77.20;13.93;;;0.30;1.00;0.60;94013.00;;;;7399090;19;20151;-77
2022/12/02 07:36:36;;;;;;;119.90;15.13;;;0.30;1.00;0.70;94036.00;;;;7400154;19;20133;-77
2022/12/02 07:39:10;;;;;;;140.60;18.00;;;0.30;1.00;0.60;94028.00;;;;7399739;19;20113;-75
2022/12/02 07:41:37;;;;;;;234.97;22.33;;;0.30;1.00;0.50;94009.00;;;;7400252;19;20133;-76
2022/12/02 07:44:05;;;;;;;42.03;11.90;;;0.30;1.00;0.40;94028.00;;;;7398625;19;20124;-76
2022/12/02 07:46:39;;;;;;;116.60;17.73;;;0.30;1.00;0.60;94022.00;;;;7399524;19;20129;-75
2022/12/02 07:49:06;;;;;;;110.80;15.47;;;0.40;1.00;0.50;94017.00;;;;7399751;19;20196;-75
2022/12/02 07:51:33;;;;;;;83.50;14.07;;;0.40;1.00;0.60;94023.00;;;;7396756;19;20472;-76
2022/12/02 07:54:07;;;;;;;59.63;13.83;;;0.50;1.00;0.60;94020.00;;;;7399102;19;20129;-76
2022/12/02 07:56:34;;;;;;;69.03;13.20;;;0.50;1.00;0.70;94018.00;;;;7399772;19;20477;-76
2022/12/02 07:59:01;;;;;;;73.73;13.83;;;0.50;1.00;0.60;94029.00;;;;7399598;19;20588;-76
2022/12/02 08:01:39;;;;;;;65.73;13.27;;;0.50;1.00;0.80;94022.00;;;;7398015;19;20494;-75
2022/12/02 08:04:06;;;;;;;96.77;13.67;;;0.50;1.00;0.70;94009.00;;;;7389165;19;20156;-75
2022/12/02 08:06:33;;;;;;;120.70;16.57;;;0.50;1.00;0.80;94007.00;;;;7398398;19;20125;-74
2022/12/02 08:09:09;;;;;;;112.27;14.67;;;0.60;1.00;0.80;94030.00;;;;7397102;19;20140;-75
2022/12/02 08:11:36;;;;;;;88.83;13.83;;;0.60;1.00;0.70;94020.00;;;;7398954;19;20129;-76
2022/12/02 08:14:04;;;;;;;134.87;14.83;;;0.60;1.00;0.80;94028.00;;;;7396196;19;20183;-76
2022/12/02 08:16:38;;;;;;;158.50;15.63;;;0.60;1.00;0.90;94022.00;;;;7398146;19;20129;-76
2022/12/02 08:19:05;;;;;;;142.40;15.40;;;0.60;1.00;0.70;94020.00;;;;7398722;19;20184;-76
2022/12/02 08:21:32;;;;;;;161.33;16.83;;;0.70;1.00;0.70;94009.00;;;;7399175;19;20587;-76
2022/12/02 08:24:07;;;;;;;247.20;22.80;;;0.60;1.00;0.80;94034.00;;;;7398799;19;20149;-76
2022/12/02 08:26:34;;;;;;;188.67;19.50;;;0.70;1.00;1.20;94032.00;;;;7398573;19;20590;-76
2022/12/02 08:29:01;;;;;;;147.10;16.30;;;0.70;1.00;1.20;94005.00;;;;7396653;19;20157;-76
2022/12/02 08:31:41;;;;;;;295.80;19.03;;;0.70;1.00;1.00;94011.00;;;;7397922;19;20179;-75
2022/12/02 08:34:09;;;;;;;151.63;16.47;;;0.70;1.00;1.00;94024.00;;;;7398566;19;20152;-77
2022/12/02 08:36:42;;;;;;;240.47;16.97;;;0.60;1.00;1.00;94005.00;;;;7398895;19;20564;-76
2022/12/02 08:39:09;;;;;;;311.83;22.30;;;0.60;1.00;1.00;93989.00;;;;7398147;19;20591;-74
2022/12/02 08:41:37;;;;;;;144.77;16.27;;;0.60;1.00;1.10;93999.00;;;;7397496;19;20129;-75
2022/12/02 08:44:11;;;;;;;349.33;26.47;;;0.70;1.00;1.20;94008.00;;;;7395387;19;20227;-75
2022/12/02 08:46:38;;;;;;;330.60;25.40;;;0.80;1.00;1.40;94015.00;;;;7396097;19;20485;-75
2022/12/02 08:49:06;;;;;;;132.53;16.63;;;0.80;1.00;1.40;94007.00;;;;7397019;19;20128;-75
2022/12/02 08:51:39;;;;;;;160.10;15.30;;;0.80;1.00;1.20;93998.00;;;;7392336;19;20612;-76
2022/12/02 08:54:06;;;;;;;326.37;22.50;;;0.80;1.00;1.20;93968.00;;;;7396189;19;20486;-76
2022/12/02 08:56:33;;;;;;;208.43;17.03;;;0.80;1.00;1.40;94001.00;;;;7396005;19;20168;-76
2022/12/02 08:59:07;;;;;;;179.90;15.70;;;0.80;1.00;1.20;94010.00;;;;7395720;19;20184;-75
2022/12/02 09:01:35;;;;;;;376.53;23.60;;;0.90;1.00;1.20;94010.00;;;;7397322;19;20145;-76
2022/12/02 09:04:03;;;;;;;189.20;21.73;;;0.90;1.00;1.30;93994.00;;;;7399523;19;20136;-76
2022/12/02 09:06:37;;;;;;;230.20;19.70;;;0.90;1.00;1.40;94013.00;;;;7398138;19;20148;-75
2022/12/02 09:09:05;;;;;;;249.10;17.60;;;1.00;1.00;1.60;94011.00;;;;7396578;19;20164;-76
2022/12/02 09:11:34;;;;;;;193.27;17.00;;;1.00;1.00;1.50;93998.00;;;;7398759;19;20469;-76
2022/12/02 09:14:07;;;;;;;187.57;16.20;;;1.00;1.00;1.40;94017.00;;;;7393195;19;20139;-76
2022/12/02 09:16:34;;;;;;;489.40;29.73;;;1.00;1.00;1.50;93987.00;;;;7395894;19;20133;-76
2022/12/02 09:19:01;;;;;;;255.67;18.67;;;1.00;1.00;1.40;93997.00;;;;7395395;19;20163;-76
2022/12/02 09:21:35;;;;;;;178.47;18.80;;;1.10;1.00;1.40;93978.00;;;;7397281;19;20133;-76
2022/12/02 09:24:02;;;;;;;393.60;24.17;;;1.20;1.00;1.50;93987.00;;;;7396490;19;20647;-76
2022/12/02 09:26:29;;;;;;;271.67;20.23;;;1.20;1.00;1.60;93985.00;;;;7395206;19;20228;-76
2022/12/02 09:29:03;;;;;;;183.77;20.80;;;1.30;1.00;1.90;93999.00;;;;7394758;19;20136;-76
2022/12/02 09:31:37;;;;;;;30.73;9.10;;;1.40;1.00;1.90;93978.00;;;;7394952;19;20177;-76
2022/12/02 09:34:18;;;;;;;112.27;11.33;;;1.50;1.00;2.00;94006.00;;;;7395839;19;20151;-76
2022/12/02 09:36:45;;;;;;;117.67;14.63;;;1.60;1.00;1.90;93996.00;;;;7395063;19;20608;-75
2022/12/02 09:39:19;;;;;;;32.03;9.33;;;1.60;1.00;2.00;94017.00;;;;7399372;19;20185;-76
2022/12/02 09:41:46;;;;;;;99.17;13.37;;;1.60;1.00;2.00;93988.00;;;;7402892;19;20129;-76
2022/12/02 09:44:13;;;;;;;70.70;12.57;;;1.60;1.00;2.00;93972.00;;;;7403735;19;20125;-76
2022/12/02 09:46:47;;;;;;;163.63;15.57;;;1.60;1.00;2.10;93994.00;;;;7402307;19;20140;-76
2022/12/02 09:49:14;;;;;;;109.03;12.13;;;1.70;1.00;2.20;93988.00;;;;7401767;19;20129;-76
2022/12/02 09:51:42;;;;;;;68.97;11.83;;;1.70;1.00;2.10;93992.00;;;;7398835;19;20153;-76
2022/12/02 09:54:16;;;;;;;51.50;10.57;;;1.80;1.00;2.10;93983.00;;;;7403628;19;20148;-76
2022/12/02 09:56:43;;;;;;;68.20;10.47;;;1.80;1.00;2.20;93984.00;;;;7401320;19;20125;-76
2022/12/02 09:59:16;;;;;;;40.67;10.13;;;1.80;1.00;2.40;93995.00;;;;7403224;19;20153;-77
2022/12/02 10:01:50;;;;;;;64.93;10.77;;;1.80;1.00;2.20;93978.00;;;;7401827;19;20219;-76
2022/12/02 10:04:22;;;;;;;53.57;10.27;;;1.80;1.00;2.30;93965.00;;;;7401249;19;20457;-76
2022/12/02 10:06:49;;;;;;;24.63;8.90;;;1.70;1.00;2.10;93968.00;;;;7401927;19;20159;-76
2022/12/02 10:09:29;;;;;;;40.60;10.20;;;1.70;1.00;2.00;93988.00;;;;7402412;19;20121;-76
2022/12/02 10:11:56;;;;;;;15.80;8.23;;;1.70;1.00;1.90;93983.00;;;;7401897;19;20163;-76
2022/12/02 10:14:30;;;;;;;19.60;8.30;;;1.70;1.00;1.90;93995.00;;;;7400305;19;20473;-75
2022/12/02 10:16:58;;;;;;;75.70;10.27;;;1.70;1.00;2.00;93981.00;;;;7402953;19;20134;-75
2022/12/02 10:19:25;;;;;;;39.43;10.27;;;1.70;99.90;2.00;93968.00;;;;7401075;19;20144;-74
2022/12/02 10:21:58;;;;;;;63.37;10.13;;;1.70;99.90;1.90;93985.00;;;;7403053;19;20663;-75
2022/12/02 10:24:37;;;;;;;37.50;10.10;;;1.60;99.90;1.70;93964.00;;;;7401900;19;20188;-75
2022/12/02 10:27:31;;;;;;;29.10;9.40;;;1.60;99.90;1.70;93968.00;;;;7401120;19;20632;-76
2022/12/02 10:30:22;;;;;;;25.77;8.63;;;1.60;99.90;1.70;93957.00;;;;7401494;19;20132;-76
2022/12/02 10:33:07;;;;;;;22.87;8.57;;;1.40;99.90;1.80;93977.00;;;;7400895;19;20151;-76
2022/12/02 10:35:44;;;;;;;15.73;8.40;;;1.40;99.90;1.70;93969.00;;;;7400034;19;20129;-75
2022/12/02 10:38:41;;;;;;;13.17;7.23;;;1.40;96.70;1.70;93965.00;;;;7401492;19;20131;-76
2022/12/02 10:41:16;;;;;;;14.60;7.53;;;1.40;96.10;1.30;93967.00;;;;7402237;19;20148;-76
2022/12/02 10:43:51;;;;;;;14.80;7.80;;;1.40;99.90;1.30;93960.00;;;;7402418;19;20153;-76
2022/12/02 10:46:21;;;;;;;16.27;8.10;;;1.30;10.30;1.20;93959.00;;;;7398469;19;20141;-76
2022/12/02 10:48:49;;;;;;;25.40;14.23;;;1.30;1.00;1.40;93954.00;;;;7401475;19;20132;-77
2022/12/02 10:51:23;;;;;;;23.90;13.47;;;1.30;1.00;1.60;93946.00;;;;7397637;19;20614;-77
2022/12/02 10:53:56;;;;;;;15.07;8.77;;;1.30;1.00;1.50;93943.00;;;;7402091;19;20761;-76
2022/12/02 10:56:23;;;;;;;18.07;8.63;;;1.30;1.00;1.70;93954.00;;;;7400187;19;20186;-76
2022/12/02 10:58:58;;;;;;;19.57;8.03;;;1.30;1.00;1.70;93942.00;;;;7401437;19;20121;-76
2022/12/02 11:01:25;;;;;;;14.50;7.20;;;1.40;1.00;1.70;93931.00;;;;7399246;19;20157;-77
2022/12/02 11:03:54;;;;;;;15.07;7.57;;;1.40;1.00;2.00;93940.00;;;;7400099;19;20168;-76
2022/12/02 11:06:28;;;;;;;27.40;18.10;;;1.40;1.00;1.80;93927.00;;;;7398778;19;20198;-76
2022/12/02 11:08:56;;;;;;;13.37;7.87;;;1.40;1.00;2.00;93933.00;;;;7399074;19;20166;-76
2022/12/02 11:11:43;;;;;;;14.53;7.90;;;1.40;1.00;1.90;93935.00;;;;7398882;19;20740;-76
2022/12/02 11:14:39;;;;;;;12.57;7.60;;;1.50;1.00;1.90;93928.00;;;;7400677;19;20623;-76
2022/12/02 11:17:10;;;;;;;11.17;6.20;;;1.50;1.00;1.90;93926.00;;;;7399222;19;20124;-76
2022/12/02 11:19:45;;;;;;;9.83;5.93;;;1.60;1.00;2.30;93931.00;;;;7400864;19;20137;-76
2022/12/02 11:22:54;;;;;;;9.80;5.97;;;1.50;1.00;2.30;93926.00;;;;7399331;19;20124;-76
2022/12/02 11:25:57;;;;;;;10.20;6.57;;;1.40;1.00;2.20;93915.00;;;;7398183;19;20133;-77